Denver, Colorado
Traffic Map
Current Weather Conditions
Denver, Colorado
Broken Clouds
Broken Clouds
18°
Feels Like: 18°
Wind Chill: 18° Ceiling: 22000
Heat Index: 18° Visibility: 10mi
Dew Point: 11° Wind: 10mph
Humidity: 62% Direction: 170° (S)
Pressure: 30.12in Gusts: 0mph
Raw Report DataKBKF 031258Z 17009KT 10SM SCT110 BKN220 18/11 A3012 RMK AO2A SLP126 T01830108
Traffic Incident Summary
Active as of:
Severity:
Category:
InformationThere was an issue retrieving the traffic information for this location. Please try a different location or try again shortly.
Advertisements
Track Severe Weather on mobile